Time;durP1;ratioP1;P1;durP2;ratioP2;P2;SDS_P1;SDS_P2;PMS_P1;PMS_P2;Temp;Humidity;BMP_temperature;BMP_pressure;BME280_temperature;BME280_humidity;BME280_pressure;Samples;Min_cycle;Max_cycle;Signal;HPM_P1;HPM_P2
2022/10/19 00:02:03;;;;;;;4.13;2.10;;;;;;;5.14;76.66;95290.69;5086137;28;20208;-73
2022/10/19 00:04:30;;;;;;;2.17;1.65;;;;;;;5.17;76.43;95286.66;5097032;28;20279;-72
2022/10/19 00:06:57;;;;;;;8.25;3.60;;;;;;;5.13;75.82;95286.38;5090616;28;20259;-73
2022/10/19 00:09:23;;;;;;;7.22;4.07;;;;;;;4.90;76.97;95290.53;5086962;28;20202;-74
2022/10/19 00:11:51;;;;;;;5.80;3.63;;;;;;;4.84;77.19;95283.56;5097099;28;20708;-73
2022/10/19 00:14:21;;;;;;;8.25;2.53;;;;;;;4.76;77.07;95281.47;5091558;28;20202;-73
2022/10/19 00:16:50;;;;;;;3.72;1.70;;;;;;;4.84;76.41;95277.41;5076932;28;20210;-73
2022/10/19 00:19:18;;;;;;;2.17;1.85;;;;;;;4.85;77.07;95271.75;5096460;28;20199;-72
2022/10/19 00:21:45;;;;;;;1.73;1.25;;;;;;;4.84;77.44;95256.72;5091365;28;20201;-72
2022/10/19 00:24:12;;;;;;;3.17;1.70;;;;;;;4.85;76.73;95274.44;5095695;28;20226;-73
2022/10/19 00:26:39;;;;;;;2.72;1.42;;;;;;;4.87;77.92;95260.75;5084462;28;20636;-73
2022/10/19 00:29:06;;;;;;;2.78;1.30;;;;;;;4.85;77.74;95258.34;5081835;28;20202;-73
2022/10/19 00:31:35;;;;;;;5.82;1.77;;;;;;;4.86;76.98;95246.53;5083368;28;20206;-73
2022/10/19 00:34:02;;;;;;;2.20;1.35;;;;;;;4.87;76.79;95245.44;5103058;28;20208;-73
2022/10/19 00:36:30;;;;;;;4.22;1.95;;;;;;;4.82;77.32;95240.09;5083080;28;20227;-72
2022/10/19 00:38:59;;;;;;;1.65;1.27;;;;;;;4.86;76.67;95235.78;5088913;28;20256;-72
2022/10/19 00:41:28;;;;;;;1.33;1.17;;;;;;;4.84;76.66;95237.94;5098116;28;20206;-72
2022/10/19 00:43:57;;;;;;;1.48;0.90;;;;;;;4.79;77.21;95232.59;5084816;28;20312;-72
2022/10/19 00:46:25;;;;;;;1.27;1.15;;;;;;;4.77;77.75;95229.41;5087656;28;20198;-73
2022/10/19 00:48:57;;;;;;;5.18;1.90;;;;;;;4.70;78.19;95218.16;5082609;28;20637;-73
2022/10/19 00:51:25;;;;;;;2.90;1.50;;;;;;;4.64;78.60;95220.06;5085068;28;20194;-73
2022/10/19 00:53:52;;;;;;;2.42;1.30;;;;;;;4.66;79.78;95227.81;5080913;28;20203;-73
2022/10/19 00:56:19;;;;;;;1.05;0.88;;;;;;;4.74;79.79;95219.22;5086764;28;20661;-74
2022/10/19 00:58:46;;;;;;;8.48;3.45;;;;;;;4.82;79.68;95218.63;5087605;28;20274;-72
2022/10/19 01:01:16;;;;;;;2.75;1.67;;;;;;;4.89;78.93;95215.66;5099300;28;20203;-72
2022/10/19 01:03:44;;;;;;;2.08;1.50;;;;;;;4.79;78.64;95211.13;5092935;28;20290;-73
2022/10/19 01:06:14;;;;;;;2.63;1.25;;;;;;;4.72;78.53;95205.28;5098026;28;20672;-73
2022/10/19 01:08:41;;;;;;;3.90;1.63;;;;;;;4.62;78.22;95208.00;5081810;28;20198;-73
2022/10/19 01:11:23;;;;;;;3.08;1.70;;;;;;;4.56;77.79;95191.13;5083809;28;20199;-73
2022/10/19 01:14:04;;;;;;;2.30;1.67;;;;;;;4.53;77.92;95190.84;5070791;28;20327;-73
2022/10/19 01:16:43;;;;;;;5.10;3.33;;;;;;;4.54;78.38;95193.28;5081849;28;20240;-73
2022/10/19 01:19:30;;;;;;;6.18;3.28;;;;;;;4.53;79.00;95190.84;5083866;28;20190;-73
2022/10/19 01:22:13;;;;;;;6.38;3.45;;;;;;;4.36;80.52;95190.41;5072291;28;20199;-74
2022/10/19 01:24:54;;;;;;;7.07;3.42;;;;;;;4.44;80.43;95192.53;5080900;28;20249;-73
2022/10/19 01:27:43;;;;;;;5.10;3.20;;;;;;;4.45;80.20;95188.75;5085367;28;20190;-73
2022/10/19 01:30:17;;;;;;;6.10;3.38;;;;;;;4.44;80.54;95187.16;5074758;28;20197;-73
2022/10/19 01:32:55;;;;;;;4.68;3.30;;;;;;;4.47;80.03;95182.06;5089146;28;20594;-73
2022/10/19 01:35:33;;;;;;;6.35;3.45;;;;;;;4.51;80.60;95176.94;5089981;28;20240;-73
2022/10/19 01:38:08;;;;;;;7.70;3.53;;;;;;;4.46;80.59;95174.28;5070627;28;20275;-73
2022/10/19 01:40:44;;;;;;;3.95;2.78;;;;;;;4.47;80.96;95173.19;5083838;28;20262;-73
2022/10/19 01:43:21;;;;;;;1.67;1.38;;;;;;;4.47;80.24;95173.19;5085130;28;20210;-73
2022/10/19 01:45:54;;;;;;;2.33;1.58;;;;;;;4.53;80.13;95166.72;5084017;28;20322;-73
2022/10/19 01:48:26;;;;;;;4.45;3.33;;;;;;;4.44;80.26;95171.88;5086222;28;20263;-73
2022/10/19 01:50:59;;;;;;;5.93;3.20;;;;;;;4.33;80.36;95164.16;5081286;28;20198;-73
2022/10/19 01:53:29;;;;;;;5.85;3.28;;;;;;;4.29;80.55;95164.69;5088779;28;20195;-73
2022/10/19 01:55:58;;;;;;;2.08;1.25;;;;;;;4.25;80.59;95168.97;5084958;28;20209;-73
2022/10/19 01:58:28;;;;;;;5.07;1.55;;;;;;;4.20;81.02;95166.34;5087688;28;20226;-73
2022/10/19 02:01:01;;;;;;;6.20;3.42;;;;;;;4.23;81.49;95170.38;5098898;28;20262;-73
2022/10/19 02:03:29;;;;;;;5.10;3.13;;;;;;;4.19;81.24;95167.41;5095465;28;20251;-73
2022/10/19 02:05:58;;;;;;;8.18;3.85;;;;;;;4.25;81.41;95163.63;5088854;28;20199;-73
2022/10/19 02:08:29;;;;;;;2.55;1.52;;;;;;;4.23;81.06;95160.44;5082395;28;20210;-73
2022/10/19 02:10:57;;;;;;;2.20;1.25;;;;;;;4.20;81.24;95160.97;5098780;28;20197;-73
2022/10/19 02:13:26;;;;;;;6.72;3.50;;;;;;;4.21;81.27;95162.59;5091370;28;20248;-73
2022/10/19 02:15:56;;;;;;;6.88;3.50;;;;;;;4.13;80.99;95160.47;5084659;28;20653;-73
2022/10/19 02:18:28;;;;;;;4.78;3.00;;;;;;;4.13;81.93;95156.97;5093319;28;20191;-73
2022/10/19 02:20:55;;;;;;;5.88;3.47;;;;;;;4.13;81.80;95165.81;5105341;28;20266;-72
2022/10/19 02:23:26;;;;;;;2.88;1.42;;;;;;;4.12;80.53;95155.38;5086048;28;20264;-73
2022/10/19 02:25:53;;;;;;;6.70;3.70;;;;;;;4.15;81.59;95155.63;5090056;28;20191;-73
2022/10/19 02:28:21;;;;;;;6.22;3.42;;;;;;;4.11;81.20;95157.25;5090002;28;20202;-73
2022/10/19 02:30:48;;;;;;;4.95;3.45;;;;;;;4.13;80.82;95148.94;5083830;28;20611;-73
2022/10/19 02:33:16;;;;;;;5.05;3.45;;;;;;;4.15;81.38;95152.94;5087847;28;20259;-73
2022/10/19 02:35:44;;;;;;;5.93;3.17;;;;;;;4.23;80.07;95155.06;5087484;28;20262;-73
2022/10/19 02:38:14;;;;;;;6.72;3.38;;;;;;;4.22;80.19;95153.47;5086955;28;20231;-73
2022/10/19 02:40:45;;;;;;;5.70;3.42;;;;;;;4.18;80.15;95157.78;5086042;28;20654;-73
2022/10/19 02:43:18;;;;;;;5.28;3.42;;;;;;;4.01;80.69;95162.66;5086103;28;20218;-73
2022/10/19 02:45:50;;;;;;;4.53;3.17;;;;;;;4.04;82.11;95159.44;5086808;28;20202;-73
2022/10/19 02:48:21;;;;;;;1.83;1.63;;;;;;;4.07;82.53;95153.53;5089174;28;20201;-73
2022/10/19 02:50:50;;;;;;;1.95;1.27;;;;;;;4.02;82.17;95156.22;5084747;28;20194;-73
2022/10/19 02:53:17;;;;;;;1.27;0.98;;;;;;;4.08;82.43;95157.81;5088327;28;20210;-73
2022/10/19 02:55:46;;;;;;;3.30;1.73;;;;;;;4.08;82.13;95151.66;5082351;28;20202;-73
2022/10/19 02:58:13;;;;;;;3.35;1.30;;;;;;;4.00;81.38;95142.28;5087066;28;20214;-74
2022/10/19 03:00:40;;;;;;;8.63;3.90;;;;;;;3.92;80.84;95137.50;5088440;28;20259;-73
2022/10/19 03:03:07;;;;;;;1.98;1.13;;;;;;;3.88;80.99;95141.78;5076942;28;20277;-74
2022/10/19 03:05:33;;;;;;;4.90;2.08;;;;;;;3.75;80.92;95132.44;5084812;28;20261;-73
2022/10/19 03:08:01;;;;;;;2.63;1.58;;;;;;;3.76;81.09;95143.97;5073612;28;20947;-74
2022/10/19 03:10:28;;;;;;;0.85;0.85;;;;;;;3.69;81.32;95146.91;5078884;28;20205;-74
2022/10/19 03:12:57;;;;;;;1.60;1.00;;;;;;;3.74;80.61;95151.47;5081324;28;20201;-74
2022/10/19 03:15:27;;;;;;;5.90;3.58;;;;;;;3.77;81.26;95145.56;5084587;28;20645;-74
2022/10/19 03:17:54;;;;;;;6.03;4.03;;;;;;;3.77;81.95;95148.25;5081206;28;20191;-74
2022/10/19 03:20:21;;;;;;;8.43;3.83;;;;;;;3.76;82.59;95143.97;5087365;28;20201;-73
2022/10/19 03:22:48;;;;;;;5.35;3.80;;;;;;;3.77;82.27;95156.28;5093359;28;20554;-73
2022/10/19 03:25:16;;;;;;;7.18;4.10;;;;;;;3.84;83.95;95151.44;5087753;28;20870;-73
2022/10/19 03:27:43;;;;;;;6.13;4.07;;;;;;;3.86;82.95;95149.28;5089749;28;20202;-74
2022/10/19 03:30:10;;;;;;;10.30;4.03;;;;;;;3.82;82.08;95153.59;5084543;28;20251;-74
2022/10/19 03:32:37;;;;;;;7.55;4.47;;;;;;;3.83;83.08;95152.50;5086974;28;20279;-74
2022/10/19 03:35:05;;;;;;;8.75;4.78;;;;;;;3.84;83.25;95154.91;5085276;28;20649;-74
2022/10/19 03:37:31;;;;;;;2.90;1.83;;;;;;;3.78;82.28;95150.66;5081826;28;20272;-74
2022/10/19 03:39:58;;;;;;;9.50;6.00;;;;;;;3.78;82.28;95141.81;5083816;28;20206;-73
2022/10/19 03:42:26;;;;;;;4.30;2.55;;;;;;;3.78;82.66;95147.19;5080804;28;20244;-74
2022/10/19 03:44:53;;;;;;;15.20;7.45;;;;;;;3.85;83.33;95139.63;5078922;28;20222;-73
2022/10/19 03:47:20;;;;;;;3.95;2.28;;;;;;;3.82;83.50;95134.84;5084516;28;20250;-75
2022/10/19 03:49:49;;;;;;;5.25;3.20;;;;;;;3.82;83.71;95138.34;5078263;28;20194;-73
2022/10/19 03:52:15;;;;;;;3.83;2.05;;;;;;;3.84;83.25;95130.00;5108184;28;20236;-74
2022/10/19 03:54:42;;;;;;;4.43;2.25;;;;;;;3.81;83.04;95131.38;5089259;28;20210;-74
2022/10/19 03:57:09;;;;;;;5.47;1.70;;;;;;;3.76;82.79;95130.56;5080441;28;20276;-72
2022/10/19 03:59:37;;;;;;;6.38;2.70;;;;;;;3.73;82.98;95128.41;5086106;28;20195;-73
2022/10/19 04:02:04;;;;;;;10.98;4.85;;;;;;;3.69;82.48;95124.72;5083015;28;20199;-72
2022/10/19 04:04:31;;;;;;;13.25;6.72;;;;;;;3.66;82.35;95127.91;5081460;28;20256;-77
2022/10/19 04:06:57;;;;;;;11.60;5.80;;;;;;;3.70;82.50;95134.31;5079484;28;20195;-74
2022/10/19 04:09:24;;;;;;;2.97;1.55;;;;;;;3.69;82.56;95132.75;5080963;28;20195;-73
2022/10/19 04:11:51;;;;;;;2.47;2.22;;;;;;;3.63;82.80;95139.16;5087307;28;20219;-74
2022/10/19 04:14:20;;;;;;;7.75;4.43;;;;;;;3.62;83.07;95126.84;5082158;28;20809;-73
2022/10/19 04:16:48;;;;;;;11.75;4.75;;;;;;;3.62;83.55;95133.00;5080953;28;20259;-72
2022/10/19 04:19:15;;;;;;;11.27;5.90;;;;;;;3.63;83.11;95131.13;5091500;28;20198;-73
2022/10/19 04:21:43;;;;;;;5.82;3.78;;;;;;;3.55;83.16;95127.91;5091090;28;20213;-75
2022/10/19 04:24:12;;;;;;;9.38;3.80;;;;;;;3.51;82.80;95116.16;5084007;28;20321;-74
2022/10/19 04:26:41;;;;;;;2.35;1.63;;;;;;;3.41;82.45;95113.50;5097744;28;20284;-73
2022/10/19 04:29:09;;;;;;;3.88;2.05;;;;;;;3.31;82.99;95115.38;5094957;28;20584;-74
2022/10/19 04:31:36;;;;;;;4.28;1.92;;;;;;;3.31;83.07;95110.81;5083425;28;20739;-74
2022/10/19 04:34:04;;;;;;;9.73;2.28;;;;;;;3.35;83.03;95111.09;5087581;28;20221;-74
2022/10/19 04:36:31;;;;;;;4.63;1.75;;;;;;;3.44;83.34;95099.56;5088775;28;20268;-73
2022/10/19 04:38:58;;;;;;;12.00;4.57;;;;;;;3.41;83.21;95110.84;5085686;28;20248;-73
2022/10/19 04:41:25;;;;;;;7.10;4.28;;;;;;;3.29;83.66;95102.25;5096717;28;20652;-74
2022/10/19 04:43:55;;;;;;;2.65;1.77;;;;;;;3.24;83.70;95109.50;5094543;28;20729;-73
2022/10/19 04:46:23;;;;;;;10.73;4.78;;;;;;;3.31;83.51;95102.00;5089135;28;20661;-73
2022/10/19 04:48:49;;;;;;;7.85;4.75;;;;;;;3.38;83.43;95106.00;5090349;28;20736;-74
2022/10/19 04:51:18;;;;;;;8.18;4.50;;;;;;;3.37;83.59;95104.41;5090505;28;20667;-73
2022/10/19 04:53:46;;;;;;;11.93;6.75;;;;;;;3.33;84.09;95122.06;5081173;28;20213;-72
2022/10/19 04:56:15;;;;;;;12.52;7.55;;;;;;;3.34;84.39;95112.97;5086925;28;20782;-73
2022/10/19 04:58:41;;;;;;;18.73;10.27;;;;;;;3.50;84.66;95119.91;5087847;28;20201;-73
2022/10/19 05:01:09;;;;;;;30.52;16.08;;;;;;;3.55;84.65;95117.22;5110790;28;20205;-74
2022/10/19 05:03:36;;;;;;;20.63;10.20;;;;;;;4.01;84.87;95114.41;5090771;28;20237;-73
2022/10/19 05:06:03;;;;;;;5.65;2.85;;;;;;;4.59;81.54;95109.28;5085635;28;20221;-73
2022/10/19 05:08:31;;;;;;;6.88;3.28;;;;;;;5.35;78.67;95106.00;5087039;28;20206;-73
2022/10/19 05:11:02;;;;;;;3.13;2.28;;;;;;;5.96;76.07;95105.44;5083371;28;20743;-73
2022/10/19 05:13:28;;;;;;;9.95;6.15;;;;;;;6.91;73.41;95102.53;5085360;28;20290;-73
2022/10/19 05:15:56;;;;;;;11.35;6.35;;;;;;;8.16;69.52;95094.41;5090371;28;20684;-73
2022/10/19 05:18:23;;;;;;;7.30;3.80;;;;;;;9.37;64.60;95087.41;5081198;28;20252;-73
2022/10/19 05:20:50;;;;;;;7.53;4.15;;;;;;;10.53;61.31;95075.34;5103265;28;20629;-73
2022/10/19 05:23:17;;;;;;;6.53;3.30;;;;;;;11.33;58.69;95076.69;5104104;28;20251;-74
2022/10/19 05:25:45;;;;;;;6.38;3.50;;;;;;;12.30;55.78;95066.03;5088151;28;20267;-72
2022/10/19 05:28:12;;;;;;;8.52;3.45;;;;;;;12.61;53.32;95065.69;5090075;28;20573;-72
2022/10/19 05:30:39;;;;;;;4.70;3.08;;;;;;;13.14;52.32;95052.19;5094684;28;20293;-72
2022/10/19 05:33:06;;;;;;;7.93;4.15;;;;;;;13.58;50.82;95054.53;5084324;28;20202;-72
2022/10/19 05:35:32;;;;;;;9.85;4.03;;;;;;;13.87;48.93;95066.06;5085498;28;20673;-72
2022/10/19 05:37:59;;;;;;;6.20;3.22;;;;;;;14.01;48.06;95062.22;5081859;28;20198;-73
2022/10/19 05:40:26;;;;;;;5.55;3.53;;;;;;;13.35;50.54;95075.88;5085459;28;20646;-73
2022/10/19 05:42:54;;;;;;;15.05;4.53;;;;;;;13.49;50.11;95062.78;5102271;28;20652;-73
2022/10/19 05:45:21;;;;;;;8.68;3.95;;;;;;;13.79;48.97;95066.16;5103226;28;20245;-73
2022/10/19 05:47:47;;;;;;;11.05;4.00;;;;;;;13.90;49.14;95067.31;5085681;28;20206;-73
2022/10/19 05:50:14;;;;;;;8.38;4.00;;;;;;;14.28;49.55;95066.22;5088920;28;20202;-72
2022/10/19 05:52:41;;;;;;;14.70;6.80;;;;;;;14.70;47.84;95073.06;5089348;28;20205;-72
2022/10/19 05:55:09;;;;;;;12.90;5.95;;;;;;;14.81;47.25;95066.00;5087739;28;20206;-73
2022/10/19 05:57:36;;;;;;;10.00;5.97;;;;;;;14.66;47.39;95061.25;5082233;28;20258;-73
2022/10/19 06:00:05;;;;;;;11.15;6.28;;;;;;;14.72;47.96;95059.88;5087850;28;20218;-72
2022/10/19 06:02:31;;;;;;;6.72;3.58;;;;;;;14.63;46.79;95055.66;5087543;28;20234;-72
2022/10/19 06:04:58;;;;;;;4.10;2.92;;;;;;;15.12;45.08;95061.84;5087053;28;20291;-72
2022/10/19 06:07:25;;;;;;;4.45;3.08;;;;;;;15.66;44.40;95061.44;5089130;28;20255;-73
2022/10/19 06:09:52;;;;;;;10.02;5.72;;;;;;;16.02;42.58;95063.97;5083464;28;20222;-72
2022/10/19 06:12:19;;;;;;;8.45;3.00;;;;;;;15.41;43.21;95075.19;5084004;28;20206;-72
2022/10/19 06:14:46;;;;;;;4.78;3.13;;;;;;;14.80;44.05;95072.59;5081008;28;20944;-72
2022/10/19 06:17:15;;;;;;;5.97;2.83;;;;;;;14.87;44.03;95077.47;5085116;28;20252;-72
2022/10/19 06:19:52;;;;;;;3.80;2.25;;;;;;;15.06;44.09;95074.13;5082342;28;20218;-74
2022/10/19 06:22:19;;;;;;;9.07;5.07;;;;;;;14.27;46.00;95080.97;5097942;28;20213;-72
2022/10/19 06:24:46;;;;;;;11.52;5.88;;;;;;;14.68;46.32;95086.25;5088092;28;20245;-72
2022/10/19 06:27:13;;;;;;;13.00;6.90;;;;;;;14.26;47.19;95087.56;5089743;28;20642;-72
2022/10/19 06:29:39;;;;;;;8.32;4.57;;;;;;;14.50;46.61;95091.13;5102551;28;20202;-72
2022/10/19 06:32:06;;;;;;;5.93;3.85;;;;;;;14.89;45.95;95081.47;5096062;28;20251;-72
2022/10/19 06:34:34;;;;;;;5.32;4.00;;;;;;;14.13;47.54;95103.09;5084510;28;20720;-72
2022/10/19 06:37:01;;;;;;;7.25;3.80;;;;;;;14.49;47.32;95094.19;5089453;28;20207;-72
2022/10/19 06:39:28;;;;;;;8.45;4.28;;;;;;;13.97;48.31;95092.06;5082484;28;20712;-72
2022/10/19 06:41:54;;;;;;;8.13;4.38;;;;;;;13.78;48.88;95086.34;5107033;28;20251;-72
2022/10/19 06:44:21;;;;;;;7.95;4.40;;;;;;;13.61;49.12;95091.97;5106852;28;20253;-72
2022/10/19 06:46:48;;;;;;;7.65;4.60;;;;;;;13.61;49.43;95091.97;5091508;28;20214;-71
2022/10/19 06:49:15;;;;;;;8.77;4.57;;;;;;;13.28;50.53;95086.50;5081578;28;20260;-72
2022/10/19 06:51:43;;;;;;;7.60;4.30;;;;;;;12.20;53.47;95093.53;5089191;28;20263;-73
2022/10/19 06:54:10;;;;;;;7.78;4.03;;;;;;;12.12;53.37;95092.47;5088052;28;20255;-72
2022/10/19 06:56:36;;;;;;;8.00;4.88;;;;;;;11.74;53.94;95090.50;5087653;28;20588;-72
2022/10/19 06:59:03;;;;;;;10.55;4.28;;;;;;;11.84;54.25;95081.22;5084702;28;20693;-71
2022/10/19 07:01:30;;;;;;;15.70;7.78;;;;;;;11.70;54.54;95080.59;5086636;28;20206;-73
2022/10/19 07:03:57;;;;;;;6.80;4.45;;;;;;;11.50;55.23;95075.81;5082858;28;20230;-72
2022/10/19 07:06:24;;;;;;;10.25;5.60;;;;;;;11.19;56.03;95076.84;5106377;28;20623;-71
2022/10/19 07:08:53;;;;;;;6.90;4.20;;;;;;;10.68;56.99;95062.16;5088211;28;20276;-72
2022/10/19 07:11:22;;;;;;;6.82;4.50;;;;;;;10.80;57.26;95071.56;5105584;28;20308;-73
2022/10/19 07:13:48;;;;;;;13.88;7.47;;;;;;;10.84;56.99;95069.81;5086853;28;20285;-73
2022/10/19 07:16:17;;;;;;;9.27;5.35;;;;;;;10.68;56.50;95070.28;5086239;28;20218;-73
2022/10/19 07:18:44;;;;;;;8.32;4.18;;;;;;;11.07;55.25;95076.66;5103780;28;20207;-73
2022/10/19 07:21:13;;;;;;;11.63;7.13;;;;;;;10.86;56.71;95073.81;5088472;28;20215;-73
2022/10/19 07:23:42;;;;;;;22.55;4.80;;;;;;;10.80;57.59;95068.84;5084198;28;20735;-73
2022/10/19 07:26:13;;;;;;;10.60;4.65;;;;;;;10.52;57.90;95062.94;5089086;28;20250;-72
2022/10/19 07:28:42;;;;;;;9.43;5.25;;;;;;;10.79;57.31;95070.00;5102525;28;20250;-73
2022/10/19 07:31:11;;;;;;;6.80;4.32;;;;;;;10.54;57.68;95076.94;5094737;28;20203;-72
2022/10/19 07:33:38;;;;;;;12.68;3.92;;;;;;;10.82;57.30;95067.41;5111360;28;20683;-73
2022/10/19 07:36:07;;;;;;;7.90;4.38;;;;;;;11.17;56.97;95062.81;5088214;28;20288;-73
2022/10/19 07:38:35;;;;;;;7.03;4.78;;;;;;;11.46;55.41;95061.34;5088380;28;20540;-73
2022/10/19 07:41:03;;;;;;;9.13;4.25;;;;;;;11.63;55.38;95051.22;5086693;28;20316;-72
2022/10/19 07:43:32;;;;;;;7.90;5.00;;;;;;;11.84;55.50;95054.06;5089003;28;20251;-73
2022/10/19 07:46:00;;;;;;;8.75;4.97;;;;;;;11.92;55.63;95047.00;5085468;28;20720;-73
2022/10/19 07:48:27;;;;;;;7.63;3.97;;;;;;;11.78;54.52;95049.94;5087001;28;20906;-73
2022/10/19 07:50:54;;;;;;;11.35;4.00;;;;;;;11.76;54.69;95038.59;5082051;28;20214;-73
2022/10/19 07:53:21;;;;;;;6.63;4.55;;;;;;;11.51;55.29;95042.16;5090760;28;20279;-73
2022/10/19 07:55:48;;;;;;;12.68;7.05;;;;;;;11.85;54.92;95033.97;5083167;28;20247;-73
2022/10/19 07:58:15;;;;;;;8.55;5.03;;;;;;;11.84;54.81;95026.13;5083706;28;20660;-72
2022/10/19 08:00:43;;;;;;;11.05;5.43;;;;;;;11.73;55.08;95028.38;5091311;28;20197;-72
2022/10/19 08:03:10;;;;;;;7.00;4.47;;;;;;;11.83;55.00;95017.19;5084690;28;20241;-73
2022/10/19 08:05:37;;;;;;;9.00;4.93;;;;;;;12.13;54.96;95017.22;5102943;28;20226;-73
2022/10/19 08:08:04;;;;;;;8.05;4.45;;;;;;;12.59;52.71;95019.81;5089269;28;20244;-72
2022/10/19 08:10:31;;;;;;;17.52;8.77;;;;;;;12.60;51.69;95015.97;5081825;28;20685;-73
2022/10/19 08:12:58;;;;;;;8.20;4.60;;;;;;;12.87;51.04;95014.63;5105204;28;20262;-73
2022/10/19 08:15:25;;;;;;;15.05;5.95;;;;;;;13.11;51.12;95017.50;5091761;28;20194;-72
2022/10/19 08:17:53;;;;;;;14.40;8.50;;;;;;;13.13;50.76;95019.84;5089369;28;20204;-73
2022/10/19 08:20:20;;;;;;;10.68;5.93;;;;;;;12.94;50.61;95011.41;5096804;28;20207;-73
2022/10/19 08:22:47;;;;;;;12.40;4.80;;;;;;;12.95;50.09;95007.56;5096440;28;20610;-72
2022/10/19 08:25:13;;;;;;;14.00;5.78;;;;;;;12.91;51.01;95006.63;5085068;28;20234;-72
2022/10/19 08:27:40;;;;;;;6.72;4.40;;;;;;;12.94;50.78;95009.47;5104906;28;20213;-74
2022/10/19 08:30:08;;;;;;;9.68;4.68;;;;;;;13.21;50.11;95002.72;5088288;28;20587;-72
2022/10/19 08:32:34;;;;;;;11.57;5.75;;;;;;;13.38;49.56;94997.09;5087444;28;20267;-72
2022/10/19 08:35:03;;;;;;;11.80;5.72;;;;;;;13.71;49.01;94998.97;5102279;28;20222;-72
2022/10/19 08:37:29;;;;;;;6.22;3.63;;;;;;;14.00;47.79;94995.25;5086834;28;20668;-73
2022/10/19 08:39:56;;;;;;;8.75;4.43;;;;;;;14.14;48.69;94990.25;5101893;28;20202;-72
2022/10/19 08:42:29;;;;;;;12.95;6.75;;;;;;;14.26;47.03;94981.28;5081093;28;20263;-73
2022/10/19 08:45:26;;;;;;;10.18;5.55;;;;;;;14.17;47.60;94982.22;5090730;28;20661;-73
2022/10/19 08:48:03;;;;;;;12.20;5.25;;;;;;;14.38;47.05;94978.53;5035088;28;20203;-73
2022/10/19 08:50:37;;;;;;;10.70;5.40;;;;;;;14.60;47.41;94975.38;5100686;28;20197;-74
2022/10/19 08:53:06;;;;;;;11.80;4.93;;;;;;;14.70;47.04;94969.44;5085953;28;20649;-75
2022/10/19 08:55:44;;;;;;;16.83;5.35;;;;;;;14.71;47.04;94971.03;5084012;28;20701;-73
2022/10/19 08:58:27;;;;;;;6.72;4.10;;;;;;;14.77;46.60;94969.63;5098657;28;20244;-73
2022/10/19 09:00:59;;;;;;;10.57;4.75;;;;;;;14.96;46.91;94965.50;5090409;28;20190;-73
2022/10/19 09:03:33;;;;;;;11.00;5.80;;;;;;;15.20;46.29;94959.94;5083084;28;20246;-73
2022/10/19 09:06:08;;;;;;;13.68;6.13;;;;;;;15.38;45.97;94961.22;5085504;28;20695;-73
2022/10/19 09:08:37;;;;;;;4.57;3.53;;;;;;;15.45;44.57;94960.59;5087405;28;20198;-74
2022/10/19 09:11:06;;;;;;;7.38;4.55;;;;;;;15.47;45.86;94959.09;5098771;28;20226;-72
2022/10/19 09:13:37;;;;;;;8.43;4.40;;;;;;;15.69;45.51;94959.69;5103676;28;20210;-72
2022/10/19 09:16:05;;;;;;;7.40;3.47;;;;;;;15.68;44.76;94953.44;5089202;28;20223;-74
2022/10/19 09:18:35;;;;;;;3.22;1.75;;;;;;;15.82;45.23;94955.72;5088444;28;20252;-73
2022/10/19 09:21:07;;;;;;;2.40;1.45;;;;;;;15.85;45.06;94957.75;5088075;28;20206;-73
2022/10/19 09:23:38;;;;;;;5.78;1.60;;;;;;;15.90;44.91;94949.28;5088729;28;20251;-73
2022/10/19 09:26:12;;;;;;;4.95;1.88;;;;;;;15.97;45.49;94952.22;5084773;28;20279;-72
2022/10/19 09:28:48;;;;;;;2.42;1.23;;;;;;;16.15;45.43;94950.66;5089327;28;20246;-74
2022/10/19 09:31:22;;;;;;;3.50;1.70;;;;;;;15.89;45.38;94947.69;5092444;28;20250;-73
2022/10/19 09:33:55;;;;;;;5.03;2.30;;;;;;;16.02;45.39;94951.13;5110708;28;20266;-72
2022/10/19 09:36:30;;;;;;;9.60;3.38;;;;;;;16.10;45.45;94959.16;5077363;28;20397;-74
2022/10/19 09:38:56;;;;;;;3.72;2.65;;;;;;;16.19;45.12;94957.03;5088117;28;20659;-75
2022/10/19 09:41:24;;;;;;;7.40;2.00;;;;;;;16.33;44.13;94962.81;5087049;28;20227;-76
2022/10/19 09:43:53;;;;;;;3.45;2.28;;;;;;;16.21;44.02;94949.25;5089238;28;20586;-73
2022/10/19 09:46:39;;;;;;;0.85;0.85;;;;;;;16.44;43.64;94962.25;5100380;28;20229;-80
2022/10/19 09:49:06;;;;;;;11.48;2.83;;;;;;;16.45;43.64;94952.91;5080066;28;20190;-74
2022/10/19 09:51:49;;;;;;;3.45;2.22;;;;;;;16.41;43.97;94955.56;5085736;28;20210;-74
2022/10/19 09:54:38;;;;;;;3.88;2.60;;;;;;;16.43;43.92;94961.47;5073817;28;20668;-76
2022/10/19 09:57:05;;;;;;;3.08;1.73;;;;;;;16.44;43.54;94948.59;5085747;28;20209;-73
2022/10/19 09:59:36;;;;;;;4.40;2.20;;;;;;;16.58;44.39;94948.91;5098388;28;20681;-72
2022/10/19 10:02:16;;;;;;;4.00;2.63;;;;;;;16.74;43.71;94955.16;5080248;28;20248;-72
2022/10/19 10:04:46;;;;;;;4.55;2.75;;;;;;;16.79;42.12;94930.25;5086821;28;20190;-72
2022/10/19 10:07:17;;;;;;;5.07;2.60;;;;;;;17.00;42.83;94933.41;5079205;28;20270;-73
2022/10/19 10:09:44;;;;;;;5.30;2.63;;;;;;;16.95;41.46;94939.16;5094169;28;20222;-75
2022/10/19 10:12:14;;;;;;;3.22;2.20;;;;;;;16.82;41.89;94928.72;5083642;28;20198;-73
2022/10/19 10:14:41;;;;;;;5.22;2.60;;;;;;;16.71;42.26;94939.44;5084943;28;20730;-75
2022/10/19 10:17:15;;;;;;;5.22;2.40;;;;;;;16.84;42.25;94920.94;5087847;28;20275;-73
2022/10/19 10:19:51;;;;;;;11.05;2.38;;;;;;;16.97;41.43;94920.44;5087571;28;20263;-81
2022/10/19 10:22:28;;;;;;;5.00;2.45;;;;;;;17.09;41.57;94910.50;5089632;28;20197;-72
2022/10/19 10:24:56;;;;;;;3.95;2.25;;;;;;;17.11;41.23;94906.25;5084802;28;20726;-72
2022/10/19 10:27:31;;;;;;;7.28;2.47;;;;;;;17.13;41.70;94906.69;5087995;28;20226;-72
2022/10/19 10:29:58;;;;;;;4.65;2.50;;;;;;;17.14;41.53;94902.00;5083691;28;20202;-73
2022/10/19 10:32:25;;;;;;;5.25;2.60;;;;;;;17.26;42.20;94893.63;5086474;28;20190;-73
2022/10/19 10:34:58;;;;;;;4.05;2.83;;;;;;;17.36;41.17;94879.31;5089898;28;20574;-73
2022/10/19 10:37:34;;;;;;;6.20;1.98;;;;;;;17.52;39.30;94880.00;5086107;28;20215;-73
2022/10/19 10:40:02;;;;;;;6.22;2.40;;;;;;;17.43;39.13;94873.97;5088752;28;20190;-73
2022/10/19 10:42:33;;;;;;;4.43;2.40;;;;;;;17.60;39.40;94876.25;5082417;28;20210;-73
2022/10/19 10:45:01;;;;;;;4.60;2.58;;;;;;;17.83;38.56;94867.22;5087462;28;20230;-73
2022/10/19 10:47:29;;;;;;;5.95;2.20;;;;;;;17.64;37.81;94865.34;5094274;28;20291;-71
2022/10/19 10:49:58;;;;;;;4.15;2.30;;;;;;;17.85;37.83;94864.91;5113960;28;20282;-74
2022/10/19 10:52:30;;;;;;;4.38;2.17;;;;;;;17.71;36.95;94860.78;5089346;28;20257;-73
2022/10/19 10:55:02;;;;;;;5.40;2.55;;;;;;;17.99;37.50;94859.66;5085129;28;20230;-73
2022/10/19 10:57:33;;;;;;;3.15;2.20;;;;;;;18.09;37.66;94842.56;5079577;28;20202;-73
2022/10/19 11:00:06;;;;;;;3.85;2.30;;;;;;;18.19;37.54;94844.66;5092225;28;20199;-73
2022/10/19 11:02:41;;;;;;;4.28;2.72;;;;;;;18.18;36.96;94834.09;5090786;28;20317;-72
2022/10/19 11:05:15;;;;;;;2.88;2.25;;;;;;;18.16;37.22;94837.19;5104417;28;20247;-74
2022/10/19 11:07:45;;;;;;;7.28;2.83;;;;;;;18.11;37.11;94837.50;5084859;28;20291;-73
2022/10/19 11:10:22;;;;;;;3.55;2.28;;;;;;;18.30;37.24;94820.94;5087649;28;20219;-75
2022/10/19 11:12:53;;;;;;;3.88;2.65;;;;;;;18.37;36.48;94837.47;5098144;28;20201;-73
2022/10/19 11:15:25;;;;;;;5.07;2.75;;;;;;;18.47;36.18;94828.59;5104914;28;20213;-74
2022/10/19 11:17:59;;;;;;;3.72;2.25;;;;;;;18.32;36.46;94829.56;5090562;28;20278;-73
2022/10/19 11:20:30;;;;;;;4.88;2.45;;;;;;;18.29;36.04;94824.84;5089104;28;20201;-72
2022/10/19 11:23:07;;;;;;;2.30;1.70;;;;;;;18.24;34.76;94813.38;5091461;28;20272;-73
2022/10/19 11:25:48;;;;;;;3.55;2.33;;;;;;;18.17;35.02;94805.88;5088668;28;20194;-73
2022/10/19 11:28:27;;;;;;;3.75;2.20;;;;;;;18.31;34.68;94811.50;5082777;28;20205;-72
2022/10/19 11:31:01;;;;;;;2.97;2.30;;;;;;;18.58;34.68;94809.56;5092563;28;20197;-75
2022/10/19 11:33:48;;;;;;;2.97;2.08;;;;;;;18.42;34.11;94806.97;5087119;28;20201;-74
2022/10/19 11:36:29;;;;;;;6.40;2.00;;;;;;;18.45;34.32;94811.69;5082445;28;20202;-74
2022/10/19 11:39:16;;;;;;;3.90;2.03;;;;;;;18.51;34.36;94803.16;5080988;28;20228;-74
2022/10/19 11:41:52;;;;;;;2.75;1.67;;;;;;;18.41;32.83;94794.44;5079569;28;20212;-73
2022/10/19 11:44:28;;;;;;;2.22;1.48;;;;;;;18.72;34.13;94795.22;5076251;28;20198;-73
2022/10/19 11:47:09;;;;;;;2.38;1.35;;;;;;;18.76;33.51;94790.53;5078494;28;20288;-74
2022/10/19 11:49:47;;;;;;;2.72;1.90;;;;;;;18.96;33.74;94789.19;5080936;28;20600;-73